Jogyakarta, Indonesia

9:48 PM WIB on October 01, 2014 (GMT +0700)
ACHMAD YANI | Change Station
CLOSE
Current Station
Airport
Location: ACHMAD YANI,
Elevation: 10 ft
Nearby Weather Stations

Elev 10 ft 6.97 °S, 110.38 °E | Updated 48 minutes ago

Scattered Clouds
Scattered Clouds
84 °F
Feels Like 90 °F
N
4
Wind Variable Wind from West

Today
High -- | Low -- °F
--% Chance of Precip.
Yesterday
High -- | Low -- °F
Precip. -- in
5:23 AM 5:33 PM
Waxing Crescent, 48% visible
Pressure 29.86 in
Visibility 4.3 miles
Clouds Scattered Clouds 2000 ft
Heat Index 90 °F
Dew Point 72 °F
Humidity 66%
Rainfall 0.00 in
Snow Depth Not available.
UV 0 out of 12
Pollen Not available.
Air Quality Not available.
Flu Activity Not available.
METAR WARS 011400Z 26003KT 7000 SCT020 29/22 Q1011 NOSIG

More Conditions Fewer Conditions

Pressure 29.86 in
Visibility 4.3 miles
Clouds Scattered Clouds 2000 ft
Heat Index 90 °F
Dew Point 72 °F
Humidity 66%
Rainfall 0.00 in
Snow Depth Not available.
UV 0 out of 12
Pollen Not available.
Air Quality Not available.
Flu Activity Not available.
METAR WARS 011400Z 26003KT 7000 SCT020 29/22 Q1011 NOSIG

More Conditions Fewer Conditions

10-Day Weather Forecast

Almanac

Astronomy

Oct. 01, 2014 Rise Set
Actual Time 5:23 AM WIB 5:33 PM WIB
Civil Twilight 5:02 AM WIB 5:54 PM WIB
Nautical Twilight 4:37 AM WIB 6:18 PM WIB
Astronomical Twilight 4:13 AM WIB 6:42 PM WIB
Moon 10:47 AM WIB 11:35 PM WIB
Length of Visible Light 12h 51m
Length of Day
12h 10m
Tomorrow will be 0m 26s longer.
Waxing Crescent, 48% of the Moon is Illuminated
Today
Waxing Crescent
Oct 1
First Quarter
Oct 8
Full
Oct 15
Last Quarter
Oct 23
New

Today's Extremes

Country Highs Country Lows

Community

WunderPhotos

Upload Photos

1,757,960 photos uploaded!

Nearby

Snow Depth

Not available.

Earthquake Activity

City Distance Mag. Time & Date
No recent earthquake activity has been reported nearby.
Minimum magnitude displayed is 2.5.

Coastal Water Temperatures

Place Temperature
No Stations Reporting

Nearby Weather Stations